createdAt,value
2023-03-08T00:02:02.109Z,12.75
2023-03-08T00:04:17.715Z,10.60
2023-03-08T00:06:42.665Z,9.93
2023-03-08T00:08:51.808Z,13.30
2023-03-08T00:10:54.027Z,12.63
2023-03-08T00:13:02.401Z,9.65
2023-03-08T00:15:12.572Z,13.02
2023-03-08T00:17:16.490Z,16.77
2023-03-08T00:19:24.441Z,13.57
2023-03-08T00:21:34.173Z,15.18
2023-03-08T00:23:43.986Z,11.95
2023-03-08T00:26:06.781Z,14.40
2023-03-08T00:28:19.969Z,13.23
2023-03-08T00:30:48.875Z,12.95
2023-03-08T00:33:01.633Z,14.80
2023-03-08T00:35:14.166Z,15.70
2023-03-08T00:37:56.172Z,14.57
2023-03-08T00:42:26.247Z,15.32
2023-03-08T00:44:45.911Z,17.25
2023-03-08T00:47:06.972Z,14.20
2023-03-08T00:49:32.923Z,18.15
2023-03-08T00:52:05.673Z,21.50
2023-03-08T00:56:39.586Z,20.23
2023-03-08T00:58:50.474Z,16.77
2023-03-08T01:01:02.456Z,15.30
2023-03-08T01:03:18.152Z,16.27
2023-03-08T01:05:32.687Z,16.02
2023-03-08T01:07:45.936Z,17.67
2023-03-08T01:10:01.755Z,15.65
2023-03-08T01:12:29.479Z,16.45
2023-03-08T01:14:53.682Z,16.60
2023-03-08T01:19:40.594Z,14.43
2023-03-08T01:21:46.901Z,14.13
2023-03-08T01:23:52.297Z,16.50
2023-03-08T01:26:15.274Z,15.48
2023-03-08T01:28:25.246Z,18.02
2023-03-08T01:30:27.866Z,18.00
2023-03-08T01:32:34.795Z,22.88
2023-03-08T01:34:40.452Z,20.23
2023-03-08T01:36:45.035Z,17.23
2023-03-08T01:38:57.119Z,19.20
2023-03-08T01:41:06.420Z,20.17
2023-03-08T01:43:47.205Z,20.67
2023-03-08T01:46:32.188Z,19.48
2023-03-08T01:49:06.887Z,18.98
2023-03-08T01:51:32.496Z,22.90
2023-03-08T01:53:56.618Z,25.38
2023-03-08T01:56:13.369Z,21.77
2023-03-08T01:58:15.193Z,21.50
2023-03-08T02:00:23.091Z,21.23
2023-03-08T02:02:34.042Z,23.55
2023-03-08T02:04:36.584Z,24.35
2023-03-08T02:06:38.788Z,21.92
2023-03-08T02:08:42.388Z,21.85
2023-03-08T02:10:44.314Z,22.48
2023-03-08T02:12:46.281Z,23.83
2023-03-08T02:14:48.266Z,21.25
2023-03-08T02:16:50.310Z,21.50
2023-03-08T02:18:58.653Z,28.85
2023-03-08T02:21:01.652Z,27.13
2023-03-08T02:23:15.167Z,22.35
2023-03-08T02:25:22.726Z,23.90
2023-03-08T02:27:33.161Z,24.52
2023-03-08T02:29:34.971Z,22.23
2023-03-08T02:31:36.852Z,26.23
2023-03-08T02:33:38.516Z,26.58
2023-03-08T02:35:42.895Z,25.90
2023-03-08T02:37:44.649Z,25.08
2023-03-08T02:39:46.505Z,26.38
2023-03-08T02:41:48.174Z,29.05
2023-03-08T02:43:49.913Z,22.73
2023-03-08T02:45:52.053Z,23.00
2023-03-08T02:47:53.714Z,25.27
2023-03-08T02:49:55.562Z,30.20
2023-03-08T02:51:57.317Z,29.77
2023-03-08T02:53:59.096Z,27.77
2023-03-08T02:56:00.869Z,25.50
2023-03-08T02:58:06.793Z,26.58
2023-03-08T03:00:10.246Z,27.33
2023-03-08T03:02:12.454Z,31.88
2023-03-08T03:04:14.380Z,31.05
2023-03-08T03:06:20.725Z,32.30
2023-03-08T03:08:22.828Z,27.17
2023-03-08T03:10:25.608Z,30.63
2023-03-08T03:12:27.592Z,28.17
2023-03-08T03:14:30.430Z,29.67
2023-03-08T03:16:32.930Z,28.63
2023-03-08T03:18:34.931Z,32.65
2023-03-08T03:20:36.838Z,27.17
2023-03-08T03:22:38.623Z,35.53
2023-03-08T03:24:40.617Z,28.85
2023-03-08T03:26:42.731Z,29.48
2023-03-08T03:28:45.676Z,30.20
2023-03-08T03:30:48.196Z,30.33
2023-03-08T03:32:50.387Z,32.50
2023-03-08T03:34:52.331Z,28.80
2023-03-08T03:36:54.196Z,28.27
2023-03-08T03:38:56.153Z,34.67
2023-03-08T03:41:02.544Z,31.98
2023-03-08T03:43:04.505Z,29.95
2023-03-08T03:45:07.209Z,32.03
2023-03-08T03:47:09.219Z,32.85
2023-03-08T03:49:11.118Z,32.08
2023-03-08T03:51:17.426Z,31.48
2023-03-08T03:53:19.280Z,27.15
2023-03-08T03:55:21.237Z,28.73
2023-03-08T03:57:23.122Z,32.22
2023-03-08T03:59:26.879Z,30.90
2023-03-08T04:01:30.886Z,34.40
2023-03-08T04:03:35.134Z,27.13
2023-03-08T04:05:37.280Z,78.95
2023-03-08T04:07:39.205Z,28.17
2023-03-08T04:09:41.091Z,28.40
2023-03-08T04:11:42.921Z,26.05
2023-03-08T04:13:45.354Z,24.55
2023-03-08T04:15:47.563Z,25.05
2023-03-08T04:17:51.177Z,24.05
2023-03-08T04:19:53.022Z,28.25
2023-03-08T04:21:54.906Z,23.08
2023-03-08T04:23:59.443Z,23.55
2023-03-08T04:26:02.980Z,24.42
2023-03-08T04:28:07.119Z,23.85
2023-03-08T04:30:10.225Z,22.75
2023-03-08T04:32:12.111Z,24.83
2023-03-08T04:34:14.444Z,25.08
2023-03-08T04:36:17.466Z,24.95
2023-03-08T04:38:19.321Z,24.67
2023-03-08T04:40:21.218Z,21.73
2023-03-08T04:42:23.146Z,25.35
2023-03-08T04:44:25.096Z,22.17
2023-03-08T04:46:28.563Z,24.63
2023-03-08T04:48:30.989Z,23.90
2023-03-08T04:50:35.369Z,22.63
2023-03-08T04:52:37.335Z,24.92
2023-03-08T04:54:39.157Z,24.20
2023-03-08T04:56:43.393Z,26.60
2023-03-08T04:58:45.897Z,28.15
2023-03-08T05:00:50.209Z,20.85
2023-03-08T05:02:52.223Z,23.15
2023-03-08T05:04:54.172Z,27.23
2023-03-08T05:06:56.054Z,24.52
2023-03-08T05:08:58.004Z,24.83
2023-03-08T05:11:01.384Z,21.27
2023-03-08T05:13:03.289Z,22.40
2023-03-08T05:15:05.975Z,22.05
2023-03-08T05:17:08.328Z,21.73
2023-03-08T05:19:10.234Z,22.45
2023-03-08T05:21:17.069Z,20.63
2023-03-08T05:23:19.038Z,20.77
2023-03-08T05:25:20.844Z,21.80
2023-03-08T05:27:22.654Z,23.13
2023-03-08T05:29:24.669Z,20.42
2023-03-08T05:31:29.087Z,16.77
2023-03-08T05:33:31.218Z,20.35
2023-03-08T05:35:33.384Z,20.48
2023-03-08T05:37:37.390Z,21.23
2023-03-08T05:39:39.246Z,18.60
2023-03-08T05:41:41.443Z,19.15
2023-03-08T05:43:43.838Z,19.45
2023-03-08T05:45:51.944Z,18.20
2023-03-08T05:47:53.852Z,18.95
2023-03-08T05:49:55.761Z,17.42
2023-03-08T05:51:57.669Z,18.30
2023-03-08T05:53:59.712Z,19.35
2023-03-08T05:56:09.758Z,15.68
2023-03-08T05:58:11.643Z,17.23
2023-03-08T06:00:14.437Z,19.02
2023-03-08T06:02:16.501Z,16.38
2023-03-08T06:04:18.392Z,16.42
2023-03-08T06:06:24.365Z,14.40
2023-03-08T06:08:28.766Z,13.57
2023-03-08T06:10:30.775Z,17.45
2023-03-08T06:12:32.724Z,15.95
2023-03-08T06:14:34.589Z,16.83
2023-03-08T06:16:36.675Z,16.23
2023-03-08T06:18:40.794Z,12.48
2023-03-08T06:20:42.970Z,13.73
2023-03-08T06:22:44.908Z,12.18
2023-03-08T06:24:49.969Z,12.52
2023-03-08T06:26:53.129Z,12.73
2023-03-08T06:28:55.171Z,12.45
2023-03-08T06:30:57.906Z,13.82
2023-03-08T06:32:59.976Z,14.82
2023-03-08T06:35:02.087Z,12.55
2023-03-08T06:37:04.159Z,14.85
2023-03-08T06:39:07.327Z,12.52
2023-03-08T06:41:11.303Z,13.70
2023-03-08T06:43:13.509Z,11.93
2023-03-08T06:45:15.788Z,11.93
2023-03-08T06:47:17.881Z,11.52
2023-03-08T06:49:20.001Z,11.95
2023-03-08T06:51:22.030Z,12.20
2023-03-08T06:53:24.004Z,11.35
2023-03-08T06:55:26.053Z,9.88
2023-03-08T06:57:28.108Z,13.00
2023-03-08T06:59:30.225Z,10.57
2023-03-08T07:01:32.404Z,10.77
2023-03-08T07:03:34.421Z,8.63
2023-03-08T07:05:38.898Z,8.48
2023-03-08T07:07:41.128Z,9.57
2023-03-08T07:09:45.154Z,8.10
2023-03-08T07:11:49.515Z,8.57
2023-03-08T07:13:51.693Z,9.43
2023-03-08T07:15:56.921Z,9.20
2023-03-08T07:18:03.923Z,9.52
2023-03-08T07:20:07.312Z,8.57
2023-03-08T07:22:09.472Z,8.18
2023-03-08T07:24:12.064Z,8.88
2023-03-08T07:26:14.163Z,8.15
2023-03-08T07:28:16.547Z,5.53
2023-03-08T07:30:18.839Z,5.57
2023-03-08T07:32:21.104Z,7.18
2023-03-08T07:34:23.297Z,6.90
2023-03-08T07:36:25.662Z,7.70
2023-03-08T07:38:27.936Z,7.07
2023-03-08T07:40:30.148Z,6.53
2023-03-08T07:42:32.383Z,8.07
2023-03-08T07:44:37.584Z,5.30
2023-03-08T07:46:40.191Z,6.07
2023-03-08T07:48:42.322Z,4.50
2023-03-08T07:50:47.057Z,7.03
2023-03-08T07:52:50.012Z,6.32
2023-03-08T07:54:54.752Z,5.35
2023-03-08T07:57:01.327Z,5.75
2023-03-08T07:59:03.599Z,5.38
2023-03-08T08:01:11.723Z,4.90
2023-03-08T08:03:14.029Z,5.38
2023-03-08T08:05:21.908Z,5.20
2023-03-08T08:07:26.338Z,5.20
2023-03-08T08:09:28.640Z,4.47
2023-03-08T08:11:30.830Z,4.40
2023-03-08T08:13:34.232Z,4.20
2023-03-08T08:15:38.549Z,9.15
2023-03-08T08:17:42.995Z,5.90
2023-03-08T08:19:45.446Z,3.97
2023-03-08T08:21:53.106Z,5.15
2023-03-08T08:23:59.856Z,3.30
2023-03-08T08:26:05.796Z,4.88
2023-03-08T08:28:08.135Z,5.50
2023-03-08T08:30:14.196Z,5.68
2023-03-08T08:32:19.100Z,4.40
2023-03-08T08:34:24.197Z,5.63
2023-03-08T08:36:29.621Z,4.03
2023-03-08T08:38:40.202Z,3.45
2023-03-08T08:40:43.431Z,5.15
2023-03-08T08:42:48.325Z,5.00
2023-03-08T08:44:54.776Z,4.38
2023-03-08T08:46:59.674Z,6.40
2023-03-08T08:49:06.194Z,5.75
2023-03-08T08:51:10.853Z,4.32
2023-03-08T08:53:13.656Z,5.10
2023-03-08T08:55:16.055Z,6.65
2023-03-08T08:57:18.424Z,6.00
2023-03-08T08:59:20.793Z,8.10
2023-03-08T09:01:26.698Z,7.88
2023-03-08T09:03:34.058Z,6.10
2023-03-08T09:05:41.546Z,5.55
2023-03-08T09:07:44.144Z,7.80
2023-03-08T09:09:49.260Z,9.63
2023-03-08T09:11:55.429Z,8.18
2023-03-08T09:13:58.415Z,4.65
2023-03-08T09:16:00.770Z,6.30
2023-03-08T09:18:03.464Z,6.72
2023-03-08T09:20:09.965Z,5.75
2023-03-08T09:22:14.485Z,6.07
2023-03-08T09:24:17.343Z,7.07
2023-03-08T09:26:19.817Z,6.32
2023-03-08T09:28:22.135Z,5.75
2023-03-08T09:30:24.739Z,3.72
2023-03-08T09:32:27.559Z,5.75
2023-03-08T09:34:29.845Z,3.30
2023-03-08T09:36:32.234Z,3.53
2023-03-08T09:38:34.664Z,3.88
2023-03-08T09:40:50.571Z,3.90
2023-03-08T09:42:54.273Z,5.38
2023-03-08T09:45:01.058Z,6.90
2023-03-08T09:47:13.727Z,4.97
2023-03-08T09:49:23.190Z,5.53
2023-03-08T09:51:30.540Z,5.68
2023-03-08T09:53:36.213Z,4.70
2023-03-08T09:55:48.981Z,3.72
2023-03-08T09:57:53.842Z,4.30
2023-03-08T10:00:00.254Z,4.72
2023-03-08T10:02:06.022Z,3.20
2023-03-08T10:04:20.738Z,6.07
2023-03-08T10:06:29.688Z,4.40
2023-03-08T10:08:45.640Z,4.55
2023-03-08T10:10:49.433Z,4.43
2023-03-08T10:12:55.003Z,4.00
2023-03-08T10:15:09.457Z,7.00
2023-03-08T10:17:19.334Z,4.88
2023-03-08T10:19:27.915Z,8.23
2023-03-08T10:21:33.167Z,4.00
2023-03-08T10:23:36.484Z,6.47
2023-03-08T10:25:39.564Z,6.45
2023-03-08T10:27:41.628Z,5.78
2023-03-08T10:29:50.395Z,5.95
2023-03-08T10:31:52.439Z,3.85
2023-03-08T10:34:02.538Z,5.55
2023-03-08T10:36:12.938Z,3.85
2023-03-08T10:38:18.524Z,7.57
2023-03-08T10:40:22.968Z,6.72
2023-03-08T10:42:28.770Z,6.38
2023-03-08T10:44:37.146Z,5.90
2023-03-08T10:46:48.897Z,3.78
2023-03-08T10:48:51.576Z,4.53
2023-03-08T10:50:59.257Z,4.88
2023-03-08T10:53:07.712Z,3.83
2023-03-08T10:55:12.612Z,4.10
2023-03-08T10:57:22.054Z,2.67
2023-03-08T10:59:32.717Z,2.45
2023-03-08T11:01:47.933Z,5.07
2023-03-08T11:03:56.378Z,6.20
2023-03-08T11:06:00.536Z,2.38
2023-03-08T11:08:03.709Z,3.53
2023-03-08T11:10:12.209Z,4.00
2023-03-08T11:12:20.630Z,3.90
2023-03-08T11:14:23.344Z,3.95
2023-03-08T11:16:40.125Z,3.50
2023-03-08T11:18:50.137Z,3.45
2023-03-08T11:20:58.690Z,2.80
2023-03-08T11:23:07.018Z,2.47
2023-03-08T11:25:10.908Z,5.90
2023-03-08T11:27:17.471Z,4.35
2023-03-08T11:29:21.295Z,4.03
2023-03-08T11:31:24.264Z,5.22
2023-03-08T11:33:35.335Z,3.45
2023-03-08T11:35:46.568Z,2.22
2023-03-08T11:37:54.899Z,5.55
2023-03-08T11:40:06.497Z,3.13
2023-03-08T11:42:16.547Z,4.85
2023-03-08T11:44:23.211Z,4.35
2023-03-08T11:46:47.138Z,3.95
2023-03-08T11:48:53.760Z,4.35
2023-03-08T11:51:06.730Z,3.55
2023-03-08T11:53:15.072Z,3.92
2023-03-08T11:55:20.965Z,5.60
2023-03-08T11:57:26.046Z,3.50
2023-03-08T11:59:31.456Z,3.47
2023-03-08T12:01:42.007Z,4.28
2023-03-08T12:03:49.974Z,3.60
2023-03-08T12:05:58.153Z,5.20
2023-03-08T12:08:06.219Z,4.47
2023-03-08T12:10:18.972Z,3.47
2023-03-08T12:12:28.711Z,3.97
2023-03-08T12:14:35.464Z,4.82
2023-03-08T12:16:47.858Z,3.42
2023-03-08T12:18:56.296Z,3.00
2023-03-08T12:21:06.692Z,4.53
2023-03-08T12:23:15.164Z,3.78
2023-03-08T12:25:18.212Z,6.90
2023-03-08T12:27:27.266Z,4.80
2023-03-08T12:29:34.166Z,3.00
2023-03-08T12:31:43.930Z,3.00
2023-03-08T12:33:48.425Z,6.90
2023-03-08T12:35:54.827Z,5.78
2023-03-08T12:37:59.820Z,4.13
2023-03-08T12:40:08.070Z,4.18
2023-03-08T12:42:11.089Z,3.53
2023-03-08T12:44:19.532Z,3.25
2023-03-08T12:46:21.926Z,3.95
2023-03-08T12:48:28.961Z,4.47
2023-03-08T12:50:35.385Z,5.38
2023-03-08T12:52:37.812Z,4.93
2023-03-08T12:54:40.075Z,5.05
2023-03-08T12:56:52.770Z,3.42
2023-03-08T12:58:57.803Z,6.80
2023-03-08T13:01:03.524Z,6.25
2023-03-08T13:03:26.376Z,3.15
2023-03-08T13:05:31.091Z,6.32
2023-03-08T13:07:40.453Z,5.05
2023-03-08T13:09:43.400Z,5.65
2023-03-08T13:11:51.973Z,3.58
2023-03-08T13:14:04.646Z,4.28
2023-03-08T13:16:08.230Z,3.33
2023-03-08T13:18:15.387Z,7.00
2023-03-08T13:20:25.781Z,5.25
2023-03-08T13:22:37.553Z,4.50
2023-03-08T13:24:43.239Z,4.90
2023-03-08T13:26:57.614Z,2.83
2023-03-08T13:28:59.834Z,2.50
2023-03-08T13:31:04.740Z,3.42
2023-03-08T13:33:09.678Z,3.78
2023-03-08T13:35:15.541Z,6.70
2023-03-08T13:37:22.336Z,4.15
2023-03-08T13:39:27.339Z,4.75
2023-03-08T13:41:34.594Z,4.22
2023-03-08T13:43:36.748Z,5.05
2023-03-08T13:45:39.003Z,4.65
2023-03-08T13:47:43.956Z,3.72
2023-03-08T13:49:46.483Z,5.40
2023-03-08T13:51:53.103Z,3.25
2023-03-08T13:53:55.894Z,4.65
2023-03-08T13:56:03.382Z,3.58
2023-03-08T13:58:06.115Z,4.78
2023-03-08T14:00:14.937Z,6.38
2023-03-08T14:02:22.456Z,6.35
2023-03-08T14:04:29.796Z,5.97
2023-03-08T14:06:34.146Z,6.25
2023-03-08T14:08:36.382Z,5.00
2023-03-08T14:10:44.863Z,3.28
2023-03-08T14:12:46.998Z,3.53
2023-03-08T14:14:54.278Z,4.38
2023-03-08T14:16:57.122Z,3.67
2023-03-08T14:19:08.863Z,3.95
2023-03-08T14:21:15.054Z,3.65
2023-03-08T14:23:26.166Z,2.33
2023-03-08T14:25:31.997Z,3.97
2023-03-08T14:27:38.609Z,4.25
2023-03-08T14:29:42.678Z,5.15
2023-03-08T14:31:51.165Z,3.85
2023-03-08T14:33:59.150Z,5.80
2023-03-08T14:36:02.038Z,7.28
2023-03-08T14:38:16.139Z,3.65
2023-03-08T14:40:25.803Z,4.22
2023-03-08T14:42:36.313Z,3.95
2023-03-08T14:44:38.698Z,3.90
2023-03-08T14:46:41.135Z,3.47
2023-03-08T14:48:43.687Z,7.43
2023-03-08T14:50:52.223Z,4.80
2023-03-08T14:52:56.791Z,4.05
2023-03-08T14:54:59.108Z,4.18
2023-03-08T14:57:14.437Z,5.82
2023-03-08T14:59:26.898Z,3.90
2023-03-08T15:01:33.143Z,5.97
2023-03-08T15:03:35.410Z,4.55
2023-03-08T15:05:40.223Z,4.13
2023-03-08T15:07:42.589Z,3.35
2023-03-08T15:09:44.935Z,3.70
2023-03-08T15:11:49.272Z,3.85
2023-03-08T15:13:51.573Z,3.25
2023-03-08T15:15:53.912Z,4.45
2023-03-08T15:17:56.470Z,5.93
2023-03-08T15:19:58.586Z,3.08
2023-03-08T15:22:01.769Z,3.55
2023-03-08T15:24:04.181Z,5.13
2023-03-08T15:26:07.423Z,5.97
2023-03-08T15:28:15.537Z,4.85
2023-03-08T15:30:20.812Z,5.82
2023-03-08T15:32:23.003Z,5.35
2023-03-08T15:34:28.105Z,5.90
2023-03-08T15:36:34.924Z,5.97
2023-03-08T15:38:37.159Z,5.05
2023-03-08T15:40:39.365Z,7.53
2023-03-08T15:42:41.662Z,5.78
2023-03-08T15:44:43.831Z,6.95
2023-03-08T15:46:45.972Z,3.45
2023-03-08T15:48:48.266Z,5.13
2023-03-08T15:50:50.687Z,6.10
2023-03-08T15:52:54.253Z,5.18
2023-03-08T15:54:56.966Z,5.05
2023-03-08T15:56:59.815Z,4.50
2023-03-08T15:59:02.496Z,9.35
2023-03-08T16:01:06.133Z,6.32
2023-03-08T16:03:08.204Z,5.68
2023-03-08T16:05:12.337Z,5.05
2023-03-08T16:07:17.760Z,3.67
2023-03-08T16:09:20.026Z,4.68
2023-03-08T16:11:23.028Z,3.55
2023-03-08T16:13:25.352Z,3.88
2023-03-08T16:15:28.015Z,4.38
2023-03-08T16:17:31.508Z,5.82
2023-03-08T16:19:35.138Z,2.55
2023-03-08T16:21:37.252Z,3.50
2023-03-08T16:23:42.107Z,4.25
2023-03-08T16:25:44.414Z,5.93
2023-03-08T16:27:46.424Z,6.47
2023-03-08T16:29:52.221Z,4.18
2023-03-08T16:31:54.434Z,4.50
2023-03-08T16:33:56.597Z,8.32
2023-03-08T16:35:58.959Z,5.63
2023-03-08T16:38:01.304Z,6.30
2023-03-08T16:40:05.875Z,6.35
2023-03-08T16:42:12.781Z,5.32
2023-03-08T16:44:20.565Z,7.97
2023-03-08T16:46:24.358Z,7.85
2023-03-08T16:48:28.220Z,5.45
2023-03-08T16:50:30.673Z,5.50
2023-03-08T16:52:32.768Z,4.93
2023-03-08T16:54:34.908Z,5.47
2023-03-08T16:56:38.225Z,6.55
2023-03-08T16:58:40.816Z,5.38
2023-03-08T17:00:43.154Z,4.25
2023-03-08T17:02:45.511Z,5.47
2023-03-08T17:04:52.066Z,3.00
2023-03-08T17:06:55.849Z,8.05
2023-03-08T17:08:59.453Z,7.32
2023-03-08T17:11:06.841Z,8.48
2023-03-08T17:13:09.349Z,5.72
2023-03-08T17:15:12.327Z,6.35
2023-03-08T17:17:14.526Z,5.60
2023-03-08T17:19:16.750Z,7.43
2023-03-08T17:21:20.258Z,4.78
2023-03-08T17:23:22.435Z,5.10
2023-03-08T17:25:24.878Z,5.70
2023-03-08T17:27:27.387Z,6.53
2023-03-08T17:29:30.224Z,7.22
2023-03-08T17:31:35.233Z,8.05
2023-03-08T17:38:01.764Z,8.35
2023-03-08T17:40:05.901Z,7.65
2023-03-08T17:42:11.087Z,10.02
2023-03-08T17:44:15.299Z,9.10
2023-03-08T17:46:24.634Z,9.88
2023-03-08T17:48:32.734Z,5.75
2023-03-08T17:50:37.872Z,6.47
2023-03-08T17:52:44.912Z,8.25
2023-03-08T17:54:51.778Z,11.10
2023-03-08T17:56:59.632Z,8.82
2023-03-08T17:59:18.270Z,8.10
2023-03-08T18:01:30.439Z,8.43
2023-03-08T18:03:39.979Z,8.20
2023-03-08T18:05:52.281Z,8.95
2023-03-08T18:07:56.122Z,13.00
2023-03-08T18:10:00.135Z,11.32
2023-03-08T18:12:09.859Z,10.73
2023-03-08T18:14:15.521Z,8.52
2023-03-08T18:16:22.771Z,10.48
2023-03-08T18:18:29.161Z,8.77
2023-03-08T18:20:33.028Z,10.05
2023-03-08T18:22:39.481Z,7.07
2023-03-08T18:24:43.147Z,7.82
2023-03-08T18:26:46.652Z,8.73
2023-03-08T18:28:55.093Z,12.05
2023-03-08T18:31:03.373Z,7.80
2023-03-08T18:33:07.629Z,10.48
2023-03-08T18:35:16.073Z,13.70
2023-03-08T18:37:20.000Z,14.23
2023-03-08T18:39:23.564Z,10.82
2023-03-08T18:41:30.393Z,9.40
2023-03-08T18:43:33.991Z,11.80
2023-03-08T18:45:37.609Z,10.88
2023-03-08T18:47:41.246Z,10.02
2023-03-08T18:49:44.970Z,10.50
2023-03-08T18:51:48.927Z,11.05
2023-03-08T18:53:54.519Z,12.52
2023-03-08T18:56:01.229Z,12.30
2023-03-08T18:58:04.814Z,9.85
2023-03-08T19:00:12.987Z,14.23
2023-03-08T19:02:19.563Z,12.70
2023-03-08T19:04:23.810Z,14.70
2023-03-08T19:06:29.294Z,10.27
2023-03-08T19:09:12.116Z,8.85
2023-03-08T19:11:19.820Z,11.27
2023-03-08T19:13:24.004Z,11.57
2023-03-08T19:15:27.930Z,12.00
2023-03-08T19:17:31.533Z,11.23
2023-03-08T19:19:35.706Z,11.25
2023-03-08T19:21:42.803Z,11.35
2023-03-08T19:23:48.059Z,9.73
2023-03-08T19:25:54.775Z,12.27
2023-03-08T19:27:58.250Z,14.80
2023-03-08T19:30:02.351Z,11.15
2023-03-08T19:32:08.129Z,11.65
2023-03-08T19:34:13.853Z,14.73
2023-03-08T19:36:17.212Z,12.93
2023-03-08T19:38:22.314Z,11.18
2023-03-08T19:40:25.674Z,10.32
2023-03-08T19:42:29.516Z,13.35
2023-03-08T19:44:33.523Z,13.18
2023-03-08T19:46:38.825Z,14.70
2023-03-08T19:48:42.226Z,12.07
2023-03-08T19:50:47.520Z,11.00
2023-03-08T19:52:50.901Z,15.30
2023-03-08T19:54:54.978Z,12.80
2023-03-08T19:56:59.957Z,10.48
2023-03-08T19:59:03.520Z,14.68
2023-03-08T20:01:10.408Z,13.90
2023-03-08T20:03:15.847Z,11.07
2023-03-08T20:05:19.398Z,14.95
2023-03-08T20:07:24.389Z,14.48
2023-03-08T20:09:28.027Z,12.05
2023-03-08T20:11:31.616Z,13.38
2023-03-08T20:13:35.006Z,12.48
2023-03-08T20:15:38.984Z,21.05
2023-03-08T20:17:43.696Z,13.60
2023-03-08T20:19:49.053Z,14.43
2023-03-08T20:21:52.540Z,15.73
2023-03-08T20:23:56.438Z,18.48
2023-03-08T20:26:01.240Z,17.20
2023-03-08T20:28:06.121Z,13.77
2023-03-08T20:30:11.976Z,15.55
2023-03-08T20:32:16.732Z,12.65
2023-03-08T20:34:22.016Z,15.80
2023-03-08T20:36:25.651Z,14.68
2023-03-08T20:38:30.450Z,11.60
2023-03-08T20:40:34.525Z,14.48
2023-03-08T20:42:38.016Z,13.55
2023-03-08T20:44:41.658Z,18.27
2023-03-08T20:46:45.216Z,13.93
2023-03-08T20:48:49.861Z,16.35
2023-03-08T20:51:01.449Z,14.10
2023-03-08T20:53:06.497Z,14.50
2023-03-08T20:55:10.128Z,15.65
2023-03-08T20:57:14.457Z,12.65
2023-03-08T20:59:20.954Z,15.82
2023-03-08T21:01:28.753Z,13.40
2023-03-08T21:03:32.530Z,13.73
2023-03-08T21:05:36.912Z,20.80
2023-03-08T21:07:40.435Z,15.90
2023-03-08T21:09:45.369Z,17.17
2023-03-08T21:11:48.748Z,19.83
2023-03-08T21:13:55.009Z,18.30
2023-03-08T21:16:03.481Z,20.95
2023-03-08T21:18:07.275Z,17.65
2023-03-08T21:20:12.216Z,19.88
2023-03-08T21:22:16.245Z,19.35
2023-03-08T21:24:23.409Z,20.75
2023-03-08T21:26:29.108Z,20.90
2023-03-08T21:28:33.449Z,25.45
2023-03-08T21:30:36.891Z,19.13
2023-03-08T21:32:40.298Z,26.60
2023-03-08T21:34:43.811Z,19.15
2023-03-08T21:36:47.466Z,17.30
2023-03-08T21:38:54.543Z,20.38
2023-03-08T21:40:58.289Z,23.58
2023-03-08T21:43:01.826Z,19.35
2023-03-08T21:45:06.407Z,21.15
2023-03-08T21:47:09.802Z,20.73
2023-03-08T21:49:22.455Z,18.45
2023-03-08T21:51:26.181Z,21.65
2023-03-08T21:53:29.500Z,21.20
2023-03-08T21:55:33.284Z,23.73
2023-03-08T21:57:37.668Z,20.30
2023-03-08T21:59:40.925Z,20.70
2023-03-08T22:01:48.180Z,19.67
2023-03-08T22:03:51.986Z,20.80
2023-03-08T22:05:55.290Z,21.10
2023-03-08T22:07:58.881Z,19.75
2023-03-08T22:10:04.038Z,24.77
2023-03-08T22:12:07.807Z,19.67
2023-03-08T22:14:12.014Z,21.38
2023-03-08T22:16:15.219Z,23.38
2023-03-08T22:18:20.380Z,23.30
2023-03-08T22:20:24.111Z,18.77
2023-03-08T22:22:27.390Z,21.33
2023-03-08T22:24:33.412Z,25.08
2023-03-08T22:26:36.662Z,21.58
2023-03-08T22:28:39.873Z,20.23
2023-03-08T22:30:43.196Z,24.77
2023-03-08T22:32:46.837Z,24.27
2023-03-08T22:34:50.236Z,23.88
2023-03-08T22:36:53.510Z,21.15
2023-03-08T22:38:56.632Z,20.15
2023-03-08T22:40:59.888Z,19.50
2023-03-08T22:43:03.036Z,21.25
2023-03-08T22:45:07.066Z,21.42
2023-03-08T22:47:10.225Z,21.20
2023-03-08T22:49:14.887Z,21.88
2023-03-08T22:51:22.184Z,22.92
2023-03-08T22:53:25.327Z,20.60
2023-03-08T22:55:28.328Z,20.05
2023-03-08T22:57:31.847Z,22.02
2023-03-08T22:59:34.951Z,22.23
2023-03-08T23:01:38.245Z,19.60
2023-03-08T23:03:41.018Z,24.63
2023-03-08T23:05:43.776Z,23.83
2023-03-08T23:07:46.928Z,20.38
2023-03-08T23:09:49.638Z,18.92
2023-03-08T23:11:52.326Z,21.35
2023-03-08T23:13:55.223Z,22.35
2023-03-08T23:15:58.192Z,19.48
2023-03-08T23:18:00.750Z,19.67
2023-03-08T23:20:04.468Z,23.88
2023-03-08T23:22:07.160Z,18.70
2023-03-08T23:24:09.599Z,23.48
2023-03-08T23:26:15.798Z,21.00
2023-03-08T23:28:19.672Z,18.95
2023-03-08T23:30:22.550Z,21.30
2023-03-08T23:32:24.900Z,19.17
2023-03-08T23:34:27.455Z,19.25
2023-03-08T23:36:31.717Z,19.38
2023-03-08T23:38:34.955Z,19.17
2023-03-08T23:40:40.161Z,18.40
2023-03-08T23:42:42.361Z,19.63
2023-03-08T23:44:44.652Z,18.02
2023-03-08T23:46:46.836Z,19.90
2023-03-08T23:48:49.548Z,18.75
2023-03-08T23:50:51.786Z,18.35
2023-03-08T23:52:54.063Z,18.17
2023-03-08T23:54:56.497Z,18.80
2023-03-08T23:56:58.644Z,19.98
2023-03-08T23:59:02.795Z,18.65
